createdAt,value
2022-11-25T00:03:00.927Z,5.69
2022-11-25T00:08:06.921Z,5.84
2022-11-25T00:13:13.392Z,5.82
2022-11-25T00:18:19.462Z,5.97
2022-11-25T00:23:27.949Z,5.97
2022-11-25T00:28:31.302Z,5.85
2022-11-25T00:33:37.041Z,5.87
2022-11-25T00:38:58.923Z,5.93
2022-11-25T00:44:05.284Z,6
2022-11-25T00:49:11.479Z,5.87
2022-11-25T00:54:17.446Z,5.89
2022-11-25T00:59:23.714Z,5.83
2022-11-25T01:04:29.772Z,5.84
2022-11-25T01:09:35.975Z,5.8
2022-11-25T01:14:43.054Z,5.95
2022-11-25T01:19:49.473Z,6
2022-11-25T01:24:55.426Z,6.04
2022-11-25T01:30:01.589Z,6.12
2022-11-25T01:46:08.174Z,6.32
2022-11-25T01:51:14.959Z,6.05
2022-11-25T01:56:21.293Z,6.09
2022-11-25T02:01:27.412Z,6.13
2022-11-25T02:06:34.287Z,5.98
2022-11-25T02:11:40.358Z,5.85
2022-11-25T02:16:46.736Z,5.74
2022-11-25T02:21:52.879Z,5.66
2022-11-25T02:32:30.124Z,5.8
2022-11-25T02:37:39.014Z,5.56
2022-11-25T02:42:44.997Z,5.52
2022-11-25T02:47:51.006Z,5.67
2022-11-25T02:52:58.000Z,5.79
2022-11-25T03:03:34.453Z,5.94
2022-11-25T03:08:44.284Z,5.75
2022-11-25T03:13:51.375Z,5.76
2022-11-25T03:18:55.736Z,5.59
2022-11-25T03:24:02.474Z,5.66
2022-11-25T03:29:11.606Z,5.65
2022-11-25T03:34:18.595Z,5.72
2022-11-25T03:39:25.685Z,5.63
2022-11-25T03:44:37.307Z,5.65
2022-11-25T03:49:46.799Z,5.83
2022-11-25T03:54:54.490Z,5.86
2022-11-25T04:00:01.725Z,5.82
2022-11-25T04:05:13.681Z,5.89
2022-11-25T04:10:28.536Z,5.87
2022-11-25T04:15:37.020Z,5.84
2022-11-25T04:20:43.214Z,5.92
2022-11-25T04:25:52.499Z,5.76
2022-11-25T04:31:03.301Z,5.8
2022-11-25T04:36:12.942Z,6
2022-11-25T04:41:21.985Z,5.95
2022-11-25T04:46:28.164Z,6.09
2022-11-25T04:51:34.365Z,5.98
2022-11-25T04:56:42.105Z,5.98
2022-11-25T05:01:48.495Z,6.05
2022-11-25T05:17:33.626Z,6.4
2022-11-25T05:22:42.963Z,6.35
2022-11-25T05:27:49.145Z,6.3
2022-11-25T05:32:55.227Z,6.39
2022-11-25T05:38:01.939Z,6.32
2022-11-25T05:43:11.031Z,6.36
2022-11-25T05:48:18.183Z,6.26
2022-11-25T05:53:28.271Z,6.28
2022-11-25T05:58:34.696Z,6.23
2022-11-25T06:03:43.808Z,6.11
2022-11-25T06:08:53.040Z,5.94
2022-11-25T06:13:59.280Z,5.83
2022-11-25T06:19:03.660Z,5.71
2022-11-25T06:24:10.587Z,5.51
2022-11-25T06:29:17.884Z,5.4
2022-11-25T06:34:27.019Z,5.44
2022-11-25T06:39:33.245Z,5.36
2022-11-25T06:44:39.310Z,5.32
2022-11-25T06:55:15.543Z,5.27
2022-11-25T07:00:22.734Z,5.22
2022-11-25T07:10:58.952Z,5.26
2022-11-25T07:16:04.974Z,5.32
2022-11-25T07:21:17.330Z,5.35
2022-11-25T07:26:23.536Z,5.41
2022-11-25T07:31:32.346Z,5.45
2022-11-25T07:36:35.385Z,5.45
2022-11-25T07:41:41.628Z,5.48
2022-11-25T07:52:18.000Z,5.79
2022-11-25T08:02:55.171Z,5.95
2022-11-25T08:08:01.107Z,5.95
2022-11-25T08:13:07.160Z,6.17
2022-11-25T08:18:13.472Z,6.23
2022-11-25T08:28:50.999Z,6.64
2022-11-25T08:33:59.284Z,6.93
2022-11-25T08:39:17.314Z,7.26
2022-11-25T08:44:13.851Z,7.48
2022-11-25T08:49:20.289Z,7.43
2022-11-25T08:54:26.521Z,7.41
2022-11-25T08:59:33.845Z,7.77
2022-11-25T09:04:39.960Z,7.79
2022-11-25T09:09:46.264Z,8.18
2022-11-25T09:14:52.669Z,8.28
2022-11-25T09:19:59.776Z,8.39
2022-11-25T09:25:05.928Z,8.57
2022-11-25T09:30:12.549Z,8.82
2022-11-25T09:35:18.360Z,8.44
2022-11-25T09:40:24.311Z,8.57
2022-11-25T09:45:33.363Z,8.25
2022-11-25T09:50:39.699Z,8.01
2022-11-25T09:55:48.866Z,8.29
2022-11-25T10:00:57.879Z,8.61
2022-11-25T10:06:04.701Z,8.75
2022-11-25T10:11:10.731Z,8.69
2022-11-25T10:16:20.046Z,9.03
2022-11-25T10:21:25.945Z,8.75
2022-11-25T10:26:32.053Z,9.07
2022-11-25T10:31:41.406Z,9.27
2022-11-25T10:36:49.743Z,9.14
2022-11-25T10:41:59.614Z,9.55
2022-11-25T10:47:14.171Z,9.92
2022-11-25T10:52:09.827Z,10.18
2022-11-25T10:57:15.957Z,10.02
2022-11-25T11:02:21.938Z,9.82
2022-11-25T11:07:27.909Z,9.84
2022-11-25T11:12:34.215Z,10.2
2022-11-25T11:17:42.230Z,10.11
2022-11-25T11:22:48.043Z,10.05
2022-11-25T11:27:54.056Z,10.01
2022-11-25T11:32:59.964Z,9.83
2022-11-25T11:38:06.388Z,9.8
2022-11-25T11:43:12.599Z,10.05
2022-11-25T11:48:18.824Z,10.04
2022-11-25T11:53:24.786Z,10.17
2022-11-25T12:20:23.604Z,9.05
2022-11-25T12:36:31.672Z,8.47
2022-11-25T12:41:37.596Z,8.4
2022-11-25T12:46:43.672Z,8.22
2022-11-25T12:57:20.437Z,8.21
2022-11-25T13:13:27.886Z,8.35
2022-11-25T13:18:33.667Z,8.26
2022-11-25T13:23:39.119Z,8.3
2022-11-25T13:28:43.512Z,8.38
2022-11-25T13:33:49.796Z,8.56
2022-11-25T13:38:55.812Z,8.52
2022-11-25T13:44:02.577Z,8.39
2022-11-25T13:49:08.283Z,8.31
2022-11-25T13:54:14.215Z,8.26
2022-11-25T13:59:20.384Z,8.28
2022-11-25T14:04:26.708Z,8.15
2022-11-25T14:15:03.661Z,8.08
2022-11-25T14:20:15.274Z,7.9
2022-11-25T14:25:24.283Z,7.8
2022-11-25T14:30:30.659Z,7.79
2022-11-25T14:41:09.050Z,7.69
2022-11-25T14:46:15.590Z,7.61
2022-11-25T14:51:21.308Z,7.61
2022-11-25T14:56:27.584Z,7.49
2022-11-25T15:01:33.848Z,7.46
2022-11-25T15:06:40.473Z,7.37
2022-11-25T15:11:46.914Z,7.37
2022-11-25T15:22:24.617Z,7.44
2022-11-25T15:27:29.570Z,7.41
2022-11-25T15:32:35.985Z,7.47
2022-11-25T15:37:42.253Z,7.42
2022-11-25T15:42:56.204Z,7.47
2022-11-25T15:48:11.503Z,7.45
2022-11-25T15:53:31.818Z,7.44
2022-11-25T15:58:34.099Z,7.44
2022-11-25T16:09:10.633Z,7.56
2022-11-25T16:14:17.581Z,7.58
2022-11-25T16:19:56.041Z,7.57
2022-11-25T16:25:18.176Z,7.7
2022-11-25T16:30:28.294Z,7.68
2022-11-25T16:35:43.752Z,7.7
2022-11-25T16:51:50.090Z,7.87
2022-11-25T16:57:01.008Z,7.82
2022-11-25T17:02:12.617Z,7.86
2022-11-25T17:18:19.491Z,8.15
2022-11-25T17:23:25.541Z,8.14
2022-11-25T17:28:33.699Z,8.12
2022-11-25T17:33:40.228Z,8.1
2022-11-25T17:38:48.498Z,8.18
2022-11-25T17:43:57.563Z,8.25
2022-11-25T17:49:07.038Z,8.31
2022-11-25T17:54:14.876Z,8.39
2022-11-25T17:59:20.981Z,8.34
2022-11-25T18:10:00.508Z,8.39
2022-11-25T18:15:06.551Z,8.33
2022-11-25T18:20:12.856Z,8.33
2022-11-25T18:25:19.015Z,8.28
2022-11-25T18:30:25.225Z,8.3
2022-11-25T18:41:02.090Z,8.34
2022-11-25T18:46:07.900Z,8.26
2022-11-25T19:07:44.552Z,8.58
2022-11-25T19:12:50.186Z,8.35
2022-11-25T19:23:26.405Z,8.27
2022-11-25T19:28:32.585Z,8.19
2022-11-25T19:39:08.928Z,8.4
2022-11-25T19:50:18.365Z,8.35
2022-11-25T19:55:27.786Z,8.26
2022-11-25T20:00:34.779Z,8.22
2022-11-25T20:05:43.125Z,8.15
2022-11-25T20:21:55.629Z,8.24
2022-11-25T20:32:35.260Z,8.24
2022-11-25T20:37:44.472Z,8.26
2022-11-25T20:42:48.683Z,8.24
2022-11-25T20:47:56.212Z,8.28
2022-11-25T20:53:01.759Z,8.36
2022-11-25T20:58:07.860Z,8.37
2022-11-25T21:03:16.875Z,8.35
2022-11-25T21:08:23.003Z,8.4
2022-11-25T21:13:39.145Z,8.45
2022-11-25T21:18:42.187Z,8.51
2022-11-25T21:23:48.101Z,8.55
2022-11-25T21:28:55.911Z,8.56
2022-11-25T21:34:04.608Z,8.55
2022-11-25T21:39:08.129Z,8.65
2022-11-25T21:44:13.838Z,8.66
2022-11-25T21:49:22.564Z,8.63
2022-11-25T21:54:26.470Z,8.67
2022-11-25T21:59:33.793Z,8.62
2022-11-25T22:10:09.717Z,8.74
2022-11-25T22:15:17.179Z,8.75
2022-11-25T22:20:21.086Z,8.72
2022-11-25T22:31:00.536Z,8.85
2022-11-25T22:36:08.211Z,8.71
2022-11-25T22:41:18.792Z,8.7
2022-11-25T22:46:29.681Z,8.75
2022-11-25T22:51:38.896Z,8.7
2022-11-25T22:56:45.236Z,8.64
2022-11-25T23:01:54.629Z,8.67
2022-11-25T23:07:04.806Z,8.66
2022-11-25T23:17:41.125Z,8.79
2022-11-25T23:22:46.737Z,8.73
2022-11-25T23:27:52.875Z,8.66
2022-11-25T23:32:59.088Z,8.67
2022-11-25T23:38:06.749Z,8.79
2022-11-25T23:43:15.793Z,8.65
2022-11-25T23:53:51.864Z,8.65
